createdAt,value
2018-06-24T00:01:10.136Z,14.49
2018-06-24T00:02:09.892Z,14.52
2018-06-24T00:04:03.157Z,14.53
2018-06-24T00:05:03.094Z,14.46
2018-06-24T00:06:56.993Z,14.46
2018-06-24T00:07:56.302Z,14.38
2018-06-24T00:09:49.647Z,14.38
2018-06-24T00:10:49.511Z,14.44
2018-06-24T00:12:42.797Z,14.41
2018-06-24T00:13:42.759Z,14.41
2018-06-24T00:15:36.019Z,14.51
2018-06-24T00:16:35.961Z,14.49
2018-06-24T00:18:29.199Z,14.51
2018-06-24T00:19:29.136Z,14.53
2018-06-24T00:21:22.427Z,14.52
2018-06-24T00:22:22.347Z,14.57
2018-06-24T00:24:15.608Z,14.51
2018-06-24T00:25:15.544Z,14.45
2018-06-24T00:27:08.941Z,14.51
2018-06-24T00:28:08.751Z,14.42
2018-06-24T00:30:02.052Z,14.46
2018-06-24T00:31:01.961Z,14.53
2018-06-24T00:32:55.337Z,14.48
2018-06-24T00:33:55.274Z,14.52
2018-06-24T00:35:48.565Z,14.51
2018-06-24T00:36:48.485Z,14.51
2018-06-24T00:38:41.863Z,14.39
2018-06-24T00:39:41.692Z,14.33
2018-06-24T00:41:34.973Z,14.31
2018-06-24T00:42:34.891Z,14.33
2018-06-24T00:44:28.171Z,14.28
2018-06-24T00:45:28.100Z,14.23
2018-06-24T00:47:21.393Z,14.23
2018-06-24T00:48:21.309Z,14.36
2018-06-24T00:50:14.598Z,14.24
2018-06-24T00:51:14.516Z,14.23
2018-06-24T00:53:07.789Z,14.36
2018-06-24T00:54:07.724Z,14.36
2018-06-24T00:56:01.124Z,14.31
2018-06-24T00:57:00.922Z,14.38
2018-06-24T00:58:54.195Z,14.36
2018-06-24T00:59:54.134Z,14.34
2018-06-24T01:01:47.424Z,14.39
2018-06-24T01:02:47.340Z,14.39
2018-06-24T01:04:40.603Z,14.33
2018-06-24T01:05:40.540Z,14.34
2018-06-24T01:07:33.824Z,14.34
2018-06-24T01:08:33.742Z,14.36
2018-06-24T01:10:27.135Z,14.36
2018-06-24T01:11:26.948Z,14.36
2018-06-24T01:13:20.223Z,14.30
2018-06-24T01:14:20.154Z,14.30
2018-06-24T01:16:13.553Z,14.27
2018-06-24T01:17:13.362Z,14.27
2018-06-24T01:19:06.636Z,14.23
2018-06-24T01:20:06.575Z,14.08
2018-06-24T01:21:59.968Z,14.13
2018-06-24T01:22:59.780Z,14.16
2018-06-24T01:24:53.054Z,14.16
2018-06-24T01:25:52.990Z,14.13
2018-06-24T01:27:46.361Z,14.13
2018-06-24T01:28:46.276Z,14.19
2018-06-24T01:30:39.674Z,14.16
2018-06-24T01:31:39.485Z,14.11
2018-06-24T01:33:32.757Z,14.11
2018-06-24T01:34:32.698Z,14.11
2018-06-24T01:36:25.984Z,14.12
2018-06-24T01:37:25.900Z,14.08
2018-06-24T01:39:19.173Z,14.08
2018-06-24T01:40:19.107Z,14.11
2018-06-24T01:42:12.399Z,14.05
2018-06-24T01:43:12.317Z,14.11
2018-06-24T01:45:05.589Z,14.08
2018-06-24T01:46:05.525Z,14.08
2018-06-24T01:47:58.810Z,14.09
2018-06-24T01:48:58.725Z,14.02
2018-06-24T01:50:52.018Z,13.99
2018-06-24T01:51:51.933Z,13.95
2018-06-24T01:53:45.195Z,14.11
2018-06-24T01:54:45.135Z,14.05
2018-06-24T01:56:38.420Z,13.99
2018-06-24T01:57:38.340Z,13.99
2018-06-24T01:59:31.613Z,13.95
2018-06-24T02:00:31.552Z,14.01
2018-06-24T02:02:24.946Z,13.95
2018-06-24T02:03:24.754Z,13.97
2018-06-24T02:05:18.027Z,13.95
2018-06-24T02:06:17.962Z,14.01
2018-06-24T02:08:11.462Z,13.95
2018-06-24T02:09:11.381Z,13.97
2018-06-24T02:11:04.791Z,13.90
2018-06-24T02:12:04.588Z,13.87
2018-06-24T02:13:58.466Z,13.91
2018-06-24T02:14:57.794Z,13.86
2018-06-24T02:16:51.084Z,13.87
2018-06-24T02:17:51.002Z,13.84
2018-06-24T02:19:44.273Z,14.01
2018-06-24T02:20:44.210Z,14.01
2018-06-24T02:22:37.500Z,13.94
2018-06-24T02:23:37.461Z,14.01
2018-06-24T02:25:30.796Z,13.95
2018-06-24T02:26:30.626Z,13.93
2018-06-24T02:28:23.908Z,13.86
2018-06-24T02:29:23.823Z,13.90
2018-06-24T02:31:17.203Z,13.87
2018-06-24T02:32:17.033Z,13.88
2018-06-24T02:34:10.358Z,13.88
2018-06-24T02:35:10.273Z,13.88
2018-06-24T02:37:03.564Z,13.87
2018-06-24T02:38:03.481Z,13.87
2018-06-24T02:39:56.754Z,13.91
2018-06-24T02:40:56.688Z,13.86
2018-06-24T02:42:49.979Z,13.83
2018-06-24T02:43:49.895Z,13.87
2018-06-24T02:45:43.168Z,13.87
2018-06-24T02:46:43.103Z,13.83
2018-06-24T02:48:36.387Z,13.81
2018-06-24T02:49:36.303Z,13.86
2018-06-24T02:51:29.574Z,13.83
2018-06-24T02:52:29.510Z,13.81
2018-06-24T02:54:22.802Z,13.87
2018-06-24T02:55:22.717Z,13.86
2018-06-24T02:57:16.024Z,13.88
2018-06-24T02:58:15.926Z,13.84
2018-06-24T03:00:09.198Z,14.01
2018-06-24T03:01:09.133Z,13.99
2018-06-24T03:03:02.427Z,13.95
2018-06-24T03:04:02.341Z,14.02
2018-06-24T03:05:56.727Z,13.95
2018-06-24T03:06:56.399Z,14.02
2018-06-24T03:08:49.692Z,13.95
2018-06-24T03:09:49.607Z,13.87
2018-06-24T03:11:42.880Z,13.88
2018-06-24T03:12:42.815Z,13.87
2018-06-24T03:14:36.107Z,13.73
2018-06-24T03:15:36.021Z,13.70
2018-06-24T03:17:29.402Z,13.83
2018-06-24T03:18:29.227Z,13.87
2018-06-24T03:20:22.535Z,13.83
2018-06-24T03:21:22.435Z,13.81
2018-06-24T03:23:15.729Z,13.87
2018-06-24T03:24:15.641Z,13.87
2018-06-24T03:26:08.914Z,13.87
2018-06-24T03:27:08.850Z,13.93
2018-06-24T03:29:02.142Z,13.94
2018-06-24T03:30:02.066Z,13.93
2018-06-24T03:31:55.332Z,13.94
2018-06-24T03:32:55.266Z,13.99
2018-06-24T03:34:48.564Z,14.11
2018-06-24T03:35:48.475Z,13.97
2018-06-24T03:37:41.852Z,14.09
2018-06-24T03:38:41.673Z,14.08
2018-06-24T03:40:35.070Z,14.12
2018-06-24T03:41:34.882Z,14.20
2018-06-24T03:43:28.174Z,14.31
2018-06-24T03:44:28.089Z,14.23
2018-06-24T03:46:21.360Z,14.15
2018-06-24T03:47:21.296Z,14.11
2018-06-24T03:49:14.695Z,14.06
2018-06-24T03:50:14.533Z,13.95
2018-06-24T03:52:07.883Z,13.91
2018-06-24T03:53:07.713Z,14.01
2018-06-24T03:55:01.004Z,14.01
2018-06-24T03:56:00.921Z,13.95
2018-06-24T03:57:54.184Z,14.01
2018-06-24T03:58:54.122Z,14.01
2018-06-24T04:00:47.414Z,14.16
2018-06-24T04:01:47.331Z,14.15
2018-06-24T04:03:40.711Z,14.27
2018-06-24T04:04:40.545Z,14.28
2018-06-24T04:06:33.938Z,14.24
2018-06-24T04:07:33.749Z,14.34
2018-06-24T04:09:27.041Z,14.39
2018-06-24T04:10:26.960Z,14.36
2018-06-24T04:12:20.339Z,14.34
2018-06-24T04:13:20.173Z,14.38
2018-06-24T04:15:13.463Z,14.34
2018-06-24T04:16:13.378Z,14.38
2018-06-24T04:18:06.643Z,14.38
2018-06-24T04:19:06.580Z,14.33
2018-06-24T04:20:59.872Z,14.26
2018-06-24T04:21:59.787Z,14.33
2018-06-24T04:23:53.063Z,14.31
2018-06-24T04:24:52.997Z,14.36
2018-06-24T04:26:46.288Z,14.36
2018-06-24T04:27:46.207Z,14.38
2018-06-24T04:29:39.498Z,14.34
2018-06-24T04:30:39.415Z,14.44
2018-06-24T04:32:32.794Z,14.39
2018-06-24T04:33:32.626Z,14.44
2018-06-24T04:35:25.917Z,14.45
2018-06-24T04:36:25.836Z,14.44
2018-06-24T04:38:19.102Z,14.38
2018-06-24T04:39:19.036Z,14.46
2018-06-24T04:41:12.356Z,14.45
2018-06-24T04:42:12.272Z,14.34
2018-06-24T04:44:05.654Z,14.12
2018-06-24T04:45:05.481Z,13.99
2018-06-24T04:46:58.880Z,14.02
2018-06-24T04:47:58.691Z,14.01
2018-06-24T04:49:51.998Z,14.11
2018-06-24T04:50:51.901Z,14.11
2018-06-24T04:52:45.173Z,14.26
2018-06-24T04:53:45.112Z,14.36
2018-06-24T04:55:38.509Z,14.11
2018-06-24T04:56:38.321Z,14.16
2018-06-24T04:58:31.701Z,14.26
2018-06-24T04:59:31.523Z,14.23
2018-06-24T05:01:24.815Z,14.21
2018-06-24T05:02:24.732Z,14.27
2018-06-24T05:04:18.005Z,14.24
2018-06-24T05:05:17.941Z,14.23
2018-06-24T05:07:11.232Z,14.31
2018-06-24T05:08:11.150Z,14.38
2018-06-24T05:10:04.424Z,14.53
2018-06-24T05:11:04.360Z,14.52
2018-06-24T05:12:57.654Z,14.71
2018-06-24T05:13:57.568Z,14.74
2018-06-24T05:15:50.865Z,14.85
2018-06-24T05:16:50.783Z,14.82
2018-06-24T05:18:44.052Z,14.86
2018-06-24T05:19:43.988Z,14.69
2018-06-24T05:21:37.280Z,14.71
2018-06-24T05:22:37.198Z,14.74
2018-06-24T05:24:30.474Z,14.49
2018-06-24T05:25:30.410Z,14.34
2018-06-24T05:27:23.808Z,14.38
2018-06-24T05:28:23.621Z,14.45
2018-06-24T05:30:16.895Z,14.53
2018-06-24T05:31:16.831Z,14.51
2018-06-24T05:33:10.124Z,14.49
2018-06-24T05:34:10.042Z,14.51
2018-06-24T05:36:03.424Z,14.63
2018-06-24T05:37:03.253Z,14.49
2018-06-24T05:38:56.549Z,14.39
2018-06-24T05:39:56.465Z,14.51
2018-06-24T05:41:49.768Z,14.56
2018-06-24T05:42:49.675Z,14.80
2018-06-24T05:44:43.056Z,14.83
2018-06-24T05:45:42.886Z,14.77
2018-06-24T05:47:36.172Z,14.59
2018-06-24T05:48:36.089Z,14.80
2018-06-24T05:50:29.368Z,14.85
2018-06-24T05:51:29.301Z,14.93
2018-06-24T05:53:22.595Z,14.80
2018-06-24T05:54:22.566Z,14.85
2018-06-24T05:56:15.893Z,14.80
2018-06-24T05:57:15.723Z,14.77
2018-06-24T05:59:09.018Z,14.63
2018-06-24T06:00:08.938Z,14.64
2018-06-24T06:02:02.216Z,14.66
2018-06-24T06:03:02.148Z,14.60
2018-06-24T06:04:55.462Z,14.74
2018-06-24T06:05:55.378Z,14.82
2018-06-24T06:07:48.675Z,14.75
2018-06-24T06:08:48.594Z,14.71
2018-06-24T06:10:41.972Z,14.66
2018-06-24T06:11:41.816Z,14.66
2018-06-24T06:13:35.099Z,14.79
2018-06-24T06:14:35.016Z,14.98
2018-06-24T06:16:28.337Z,15.07
2018-06-24T06:17:28.274Z,14.67
2018-06-24T06:19:21.569Z,14.53
2018-06-24T06:20:21.487Z,14.51
2018-06-24T06:22:14.762Z,14.27
2018-06-24T06:23:14.700Z,14.34
2018-06-24T06:25:08.096Z,14.15
2018-06-24T06:26:07.908Z,14.09
2018-06-24T06:28:01.194Z,14.38
2018-06-24T06:29:01.111Z,14.36
2018-06-24T06:30:54.386Z,14.30
2018-06-24T06:31:54.320Z,14.39
2018-06-24T06:33:47.615Z,14.44
2018-06-24T06:34:47.533Z,14.36
2018-06-24T06:36:40.810Z,14.34
2018-06-24T06:37:40.744Z,14.38
2018-06-24T06:39:34.036Z,14.51
2018-06-24T06:40:33.951Z,14.49
2018-06-24T06:42:27.331Z,14.59
2018-06-24T06:43:27.161Z,14.69
2018-06-24T06:45:20.595Z,14.80
2018-06-24T06:46:20.371Z,15.05
2018-06-24T06:48:13.636Z,15.18
2018-06-24T06:49:13.576Z,15.19
2018-06-24T06:51:06.926Z,15.27
2018-06-24T06:52:06.791Z,15.40
2018-06-24T06:54:00.183Z,15.20
2018-06-24T06:54:59.998Z,15.37
2018-06-24T06:56:53.275Z,15.34
2018-06-24T06:57:53.266Z,15.07
2018-06-24T06:59:46.505Z,14.79
2018-06-24T07:00:46.424Z,14.80
2018-06-24T07:02:39.697Z,15.07
2018-06-24T07:03:39.635Z,15.10
2018-06-24T07:05:32.929Z,15.25
2018-06-24T07:06:32.850Z,15.19
2018-06-24T07:08:26.119Z,15.40
2018-06-24T07:09:26.054Z,15.38
2018-06-24T07:11:19.359Z,15.40
2018-06-24T07:12:19.275Z,15.53
2018-06-24T07:14:12.569Z,15.51
2018-06-24T07:15:12.487Z,15.58
2018-06-24T07:17:05.873Z,15.44
2018-06-24T07:18:05.700Z,15.25
2018-06-24T07:19:58.998Z,14.87
2018-06-24T07:20:58.914Z,15.02
2018-06-24T07:22:52.191Z,14.75
2018-06-24T07:23:52.128Z,14.86
2018-06-24T07:25:45.432Z,14.89
2018-06-24T07:26:45.352Z,14.85
2018-06-24T07:28:38.731Z,14.87
2018-06-24T07:29:38.561Z,14.85
2018-06-24T07:31:31.856Z,14.63
2018-06-24T07:32:31.774Z,14.75
2018-06-24T07:34:25.060Z,15.04
2018-06-24T07:35:24.994Z,15.15
2018-06-24T07:37:18.294Z,15.33
2018-06-24T07:38:18.212Z,15.37
2018-06-24T07:40:11.506Z,15.05
2018-06-24T07:41:11.426Z,15.30
2018-06-24T07:43:04.706Z,15.59
2018-06-24T07:44:04.640Z,15.78
2018-06-24T07:45:58.042Z,15.58
2018-06-24T07:46:57.854Z,15.52
2018-06-24T07:48:51.132Z,15.73
2018-06-24T07:49:51.070Z,15.74
2018-06-24T07:51:44.366Z,15.56
2018-06-24T07:52:44.289Z,15.55
2018-06-24T07:54:37.564Z,15.52
2018-06-24T07:55:37.502Z,15.71
2018-06-24T07:57:30.844Z,15.80
2018-06-24T07:58:30.716Z,15.98
2018-06-24T08:00:24.015Z,15.89
2018-06-24T08:01:23.933Z,15.58
2018-06-24T08:03:17.866Z,15.71
2018-06-24T08:04:17.151Z,15.51
2018-06-24T08:06:10.444Z,15.67
2018-06-24T08:07:10.365Z,15.70
2018-06-24T08:09:03.643Z,15.81
2018-06-24T08:10:03.580Z,15.81
2018-06-24T08:11:56.981Z,15.56
2018-06-24T08:12:56.796Z,15.51
2018-06-24T08:14:50.073Z,15.16
2018-06-24T08:15:50.010Z,15.27
2018-06-24T08:17:43.411Z,15.35
2018-06-24T08:18:43.227Z,15.31
2018-06-24T08:20:36.627Z,15.63
2018-06-24T08:21:36.443Z,15.77
2018-06-24T08:23:29.822Z,15.68
2018-06-24T08:24:29.657Z,15.89
2018-06-24T08:26:23.058Z,15.49
2018-06-24T08:27:22.873Z,15.37
2018-06-24T08:29:16.148Z,15.53
2018-06-24T08:30:16.085Z,15.56
2018-06-24T08:32:09.384Z,15.52
2018-06-24T08:33:09.303Z,15.62
2018-06-24T08:35:02.681Z,15.73
2018-06-24T08:36:02.517Z,15.74
2018-06-24T08:37:55.804Z,15.89
2018-06-24T08:38:55.792Z,16.06
2018-06-24T08:40:49.019Z,15.88
2018-06-24T08:41:48.939Z,15.91
2018-06-24T08:43:42.214Z,15.81
2018-06-24T08:44:42.153Z,15.84
2018-06-24T08:46:35.553Z,15.65
2018-06-24T08:47:35.374Z,15.59
2018-06-24T08:49:28.650Z,15.55
2018-06-24T08:50:28.588Z,15.60
2018-06-24T08:52:21.883Z,15.88
2018-06-24T08:53:21.803Z,16.00
2018-06-24T08:55:15.086Z,16.04
2018-06-24T08:56:15.020Z,16.27
2018-06-24T08:58:08.359Z,15.96
2018-06-24T08:59:08.281Z,16.29
2018-06-24T09:01:01.699Z,16.26
2018-06-24T09:02:01.496Z,16.42
2018-06-24T09:03:54.774Z,16.32
2018-06-24T09:04:54.713Z,16.40
2018-06-24T09:06:48.117Z,16.49
2018-06-24T09:07:47.932Z,16.11
2018-06-24T09:09:41.210Z,16.21
2018-06-24T09:10:41.151Z,16.32
2018-06-24T09:12:34.447Z,16.52
2018-06-24T09:13:34.430Z,16.32
2018-06-24T09:15:27.805Z,16.16
2018-06-24T09:16:27.585Z,16.32
2018-06-24T09:18:20.874Z,16.85
2018-06-24T09:19:20.794Z,16.76
2018-06-24T09:21:14.192Z,16.62
2018-06-24T09:22:14.129Z,16.70
2018-06-24T09:24:07.360Z,16.57
2018-06-24T09:25:07.282Z,16.57
2018-06-24T09:27:00.566Z,16.37
2018-06-24T09:28:00.486Z,16.40
2018-06-24T09:29:53.757Z,16.45
2018-06-24T09:30:53.758Z,16.48
2018-06-24T09:32:46.987Z,16.44
2018-06-24T09:33:46.902Z,16.59
2018-06-24T09:35:40.289Z,16.07
2018-06-24T09:36:40.111Z,15.99
2018-06-24T09:38:33.399Z,16.10
2018-06-24T09:39:33.320Z,16.32
2018-06-24T09:41:26.593Z,16.49
2018-06-24T09:42:26.527Z,16.52
2018-06-24T09:44:19.818Z,16.54
2018-06-24T09:45:19.734Z,16.48
2018-06-24T09:47:13.021Z,16.58
2018-06-24T09:48:12.940Z,16.67
2018-06-24T09:50:06.212Z,16.73
2018-06-24T09:51:06.149Z,16.63
2018-06-24T09:52:59.482Z,16.57
2018-06-24T09:53:59.356Z,16.34
2018-06-24T09:55:52.687Z,16.49
2018-06-24T09:56:52.568Z,16.47
2018-06-24T09:58:45.865Z,16.33
2018-06-24T09:59:45.786Z,16.10
2018-06-24T10:01:39.056Z,16.47
2018-06-24T10:02:38.994Z,16.47
2018-06-24T10:04:32.363Z,16.80
2018-06-24T10:05:32.282Z,16.39
2018-06-24T10:07:25.569Z,16.27
2018-06-24T10:08:25.489Z,16.33
2018-06-24T10:10:18.873Z,16.22
2018-06-24T10:11:18.705Z,16.51
2018-06-24T10:13:11.993Z,16.51
2018-06-24T10:14:11.910Z,16.69
2018-06-24T10:16:05.293Z,16.87
2018-06-24T10:17:05.118Z,16.67
2018-06-24T10:18:58.409Z,16.37
2018-06-24T10:19:58.326Z,16.36
2018-06-24T10:21:51.708Z,16.52
2018-06-24T10:22:51.534Z,16.49
2018-06-24T10:24:44.936Z,16.44
2018-06-24T10:25:44.742Z,16.37
2018-06-24T10:27:38.013Z,16.81
2018-06-24T10:28:37.951Z,17.03
2018-06-24T10:30:31.351Z,17.00
2018-06-24T10:31:31.162Z,16.74
2018-06-24T10:33:24.463Z,16.62
2018-06-24T10:34:24.368Z,16.72
2018-06-24T10:36:17.639Z,16.72
2018-06-24T10:37:17.577Z,16.70
2018-06-24T10:39:11.034Z,16.58
2018-06-24T10:40:10.785Z,16.81
2018-06-24T10:42:04.052Z,17.12
2018-06-24T10:43:03.994Z,16.69
2018-06-24T10:44:57.291Z,16.77
2018-06-24T10:45:57.214Z,16.69
2018-06-24T10:47:50.635Z,16.66
2018-06-24T10:48:50.421Z,16.33
2018-06-24T10:50:43.711Z,15.77
2018-06-24T10:51:43.629Z,15.43
2018-06-24T10:53:37.928Z,15.62
2018-06-24T10:54:37.836Z,15.52
2018-06-24T10:56:32.217Z,15.33
2018-06-24T10:57:32.040Z,15.49
2018-06-24T10:59:25.322Z,15.86
2018-06-24T11:00:25.243Z,15.84
2018-06-24T11:02:18.569Z,15.81
2018-06-24T11:03:18.912Z,15.83
2018-06-24T11:05:11.853Z,15.95
2018-06-24T11:06:11.541Z,15.89
2018-06-24T11:08:04.785Z,15.78
2018-06-24T11:09:04.691Z,15.95
2018-06-24T11:10:58.090Z,16.34
2018-06-24T11:11:57.894Z,16.51
2018-06-24T11:13:51.167Z,16.47
2018-06-24T11:14:51.102Z,16.21
2018-06-24T11:16:44.408Z,15.93
2018-06-24T11:17:44.320Z,15.83
2018-06-24T11:19:37.607Z,16.34
2018-06-24T11:20:37.525Z,16.57
2018-06-24T11:22:30.820Z,16.82
2018-06-24T11:23:30.734Z,16.94
2018-06-24T11:25:24.026Z,17.28
2018-06-24T11:26:23.945Z,17.45
2018-06-24T11:28:17.218Z,16.82
2018-06-24T11:29:17.157Z,16.88
2018-06-24T11:31:10.454Z,16.67
2018-06-24T11:32:10.371Z,16.87
2018-06-24T11:34:03.652Z,17.03
2018-06-24T11:35:03.592Z,16.99
2018-06-24T11:36:57.029Z,16.58
2018-06-24T11:37:56.801Z,16.42
2018-06-24T11:39:50.208Z,16.48
2018-06-24T11:40:50.013Z,16.72
2018-06-24T11:42:43.282Z,16.97
2018-06-24T11:43:43.220Z,17.02
2018-06-24T11:45:36.625Z,17.36
2018-06-24T11:46:36.439Z,17.32
2018-06-24T11:48:29.815Z,17.21
2018-06-24T11:49:29.644Z,17.30
2018-06-24T11:51:22.936Z,16.97
2018-06-24T11:52:22.854Z,16.72
2018-06-24T11:54:16.126Z,16.58
2018-06-24T11:55:16.067Z,16.48
2018-06-24T11:57:09.357Z,16.25
2018-06-24T11:58:09.275Z,16.30
2018-06-24T12:00:02.545Z,16.55
2018-06-24T12:01:02.485Z,16.51
2018-06-24T12:02:55.783Z,16.37
2018-06-24T12:03:55.703Z,16.33
2018-06-24T12:05:48.990Z,16.80
2018-06-24T12:06:48.931Z,16.95
2018-06-24T12:08:42.184Z,17.07
2018-06-24T12:09:42.130Z,17.00
2018-06-24T12:11:35.405Z,16.95
2018-06-24T12:12:35.327Z,16.57
2018-06-24T12:14:28.598Z,16.47
2018-06-24T12:15:28.536Z,16.32
2018-06-24T12:17:21.834Z,16.57
2018-06-24T12:18:21.753Z,16.67
2018-06-24T12:20:15.022Z,16.82
2018-06-24T12:21:14.962Z,16.99
2018-06-24T12:23:08.249Z,16.94
2018-06-24T12:24:08.167Z,16.80
2018-06-24T12:26:01.574Z,17.06
2018-06-24T12:27:01.380Z,16.82
2018-06-24T12:28:54.652Z,17.10
2018-06-24T12:29:54.592Z,16.94
2018-06-24T12:31:47.879Z,16.85
2018-06-24T12:32:47.801Z,17.05
2018-06-24T12:34:41.063Z,17.00
2018-06-24T12:35:41.009Z,16.87
2018-06-24T12:37:34.362Z,16.77
2018-06-24T12:38:34.333Z,16.57
2018-06-24T12:40:27.549Z,16.85
2018-06-24T12:41:27.493Z,16.81
2018-06-24T12:43:20.833Z,17.03
2018-06-24T12:44:20.698Z,17.13
2018-06-24T12:46:14.085Z,16.82
2018-06-24T12:47:13.922Z,16.91
2018-06-24T12:49:07.194Z,17.00
2018-06-24T12:50:07.114Z,17.12
2018-06-24T12:52:00.516Z,17.12
2018-06-24T12:53:00.322Z,17.05
2018-06-24T12:54:53.704Z,16.82
2018-06-24T12:55:53.525Z,16.99
2018-06-24T12:57:46.821Z,16.74
2018-06-24T12:58:46.862Z,16.69
2018-06-24T13:00:40.852Z,16.80
2018-06-24T13:01:39.961Z,16.65
2018-06-24T13:03:33.246Z,16.63
2018-06-24T13:04:33.165Z,16.58
2018-06-24T13:06:26.439Z,16.77
2018-06-24T13:07:26.374Z,16.87
2018-06-24T13:09:19.672Z,17.03
2018-06-24T13:10:19.595Z,17.20
2018-06-24T13:12:12.860Z,17.30
2018-06-24T13:13:12.801Z,17.05
2018-06-24T13:15:06.199Z,17.15
2018-06-24T13:16:06.006Z,16.97
2018-06-24T13:17:59.297Z,17.06
2018-06-24T13:18:59.216Z,17.18
2018-06-24T13:20:52.485Z,17.12
2018-06-24T13:21:52.424Z,16.99
2018-06-24T13:23:45.824Z,16.91
2018-06-24T13:24:45.630Z,17.02
2018-06-24T13:26:39.025Z,17.12
2018-06-24T13:27:38.838Z,17.12
2018-06-24T13:29:32.251Z,17.09
2018-06-24T13:30:32.082Z,16.72
2018-06-24T13:32:25.429Z,16.51
2018-06-24T13:33:25.252Z,16.57
2018-06-24T13:35:18.655Z,16.42
2018-06-24T13:36:18.474Z,16.45
2018-06-24T13:38:11.773Z,16.72
2018-06-24T13:39:11.683Z,16.82
2018-06-24T13:41:05.069Z,16.81
2018-06-24T13:42:04.889Z,16.87
2018-06-24T13:43:58.286Z,17.02
2018-06-24T13:44:58.093Z,16.97
2018-06-24T13:46:51.370Z,17.00
2018-06-24T13:47:51.313Z,16.91
2018-06-24T13:49:44.709Z,16.87
2018-06-24T13:50:44.524Z,16.92
2018-06-24T13:52:37.801Z,16.92
2018-06-24T13:53:37.740Z,16.62
2018-06-24T13:55:31.024Z,16.33
2018-06-24T13:56:30.945Z,16.44
2018-06-24T13:58:24.216Z,16.26
2018-06-24T13:59:24.154Z,16.22
2018-06-24T14:01:17.449Z,16.18
2018-06-24T14:02:17.368Z,16.18
2018-06-24T14:04:10.667Z,16.30
2018-06-24T14:05:10.584Z,16.47
2018-06-24T14:07:04.853Z,16.87
2018-06-24T14:08:04.850Z,16.90
2018-06-24T14:09:58.086Z,17.12
2018-06-24T14:10:58.004Z,17.15
2018-06-24T14:12:51.283Z,17.12
2018-06-24T14:13:51.209Z,16.94
2018-06-24T14:15:44.610Z,16.21
2018-06-24T14:16:44.416Z,16.22
2018-06-24T14:18:37.693Z,16.07
2018-06-24T14:19:37.629Z,15.99
2018-06-24T14:21:31.032Z,16.33
2018-06-24T14:22:30.837Z,16.25
2018-06-24T14:24:24.143Z,16.40
2018-06-24T14:25:24.051Z,16.34
2018-06-24T14:27:17.320Z,16.06
2018-06-24T14:28:17.261Z,16.18
2018-06-24T14:30:10.547Z,16.32
2018-06-24T14:31:10.466Z,16.42
2018-06-24T14:33:03.743Z,16.40
2018-06-24T14:34:03.677Z,16.34
2018-06-24T14:35:57.087Z,16.34
2018-06-24T14:36:56.891Z,16.36
2018-06-24T14:38:51.159Z,16.32
2018-06-24T14:39:51.095Z,16.17
2018-06-24T14:41:45.385Z,16.14
2018-06-24T14:42:45.299Z,16.10
2018-06-24T14:44:38.566Z,15.99
2018-06-24T14:45:38.504Z,15.93
2018-06-24T14:47:31.909Z,15.92
2018-06-24T14:48:31.709Z,15.98
2018-06-24T14:50:24.995Z,16.00
2018-06-24T14:51:24.913Z,15.81
2018-06-24T14:53:18.295Z,16.00
2018-06-24T14:54:18.116Z,16.11
2018-06-24T14:56:11.422Z,16.07
2018-06-24T14:57:11.317Z,16.13
2018-06-24T14:59:04.589Z,16.37
2018-06-24T15:00:04.532Z,16.45
2018-06-24T15:01:57.818Z,16.51
2018-06-24T15:02:57.731Z,16.54
2018-06-24T15:04:50.995Z,16.49
2018-06-24T15:05:50.934Z,16.42
2018-06-24T15:07:45.332Z,16.55
2018-06-24T15:08:45.137Z,16.44
2018-06-24T15:10:38.537Z,16.49
2018-06-24T15:11:38.343Z,16.48
2018-06-24T15:13:31.608Z,16.26
2018-06-24T15:14:31.544Z,16.25
2018-06-24T15:16:24.844Z,16.40
2018-06-24T15:17:24.750Z,16.47
2018-06-24T15:19:18.021Z,16.62
2018-06-24T15:20:17.956Z,16.59
2018-06-24T15:22:11.243Z,16.84
2018-06-24T15:23:11.163Z,16.67
2018-06-24T15:25:04.546Z,16.82
2018-06-24T15:26:04.397Z,16.72
2018-06-24T15:27:57.684Z,16.30
2018-06-24T15:28:57.612Z,16.13
2018-06-24T15:30:50.873Z,16.25
2018-06-24T15:31:50.810Z,16.17
2018-06-24T15:33:44.100Z,16.48
2018-06-24T15:34:44.008Z,16.57
2018-06-24T15:36:37.412Z,16.81
2018-06-24T15:37:37.256Z,16.76
2018-06-24T15:39:31.484Z,16.91
2018-06-24T15:40:31.422Z,16.91
2018-06-24T15:42:24.708Z,16.77
2018-06-24T15:43:24.619Z,16.76
2018-06-24T15:45:17.896Z,16.84
2018-06-24T15:46:17.832Z,16.87
2018-06-24T15:48:12.234Z,16.84
2018-06-24T15:49:12.034Z,16.74
2018-06-24T15:51:05.302Z,16.69
2018-06-24T15:52:05.241Z,16.66
2018-06-24T15:53:59.149Z,16.81
2018-06-24T15:54:58.446Z,16.82
2018-06-24T15:56:51.712Z,16.67
2018-06-24T15:57:51.652Z,16.76
2018-06-24T15:59:44.949Z,16.77
2018-06-24T16:00:44.866Z,16.84
2018-06-24T16:02:38.274Z,16.90
2018-06-24T16:03:38.074Z,16.87
2018-06-24T16:05:31.334Z,17.00
2018-06-24T16:06:31.276Z,17.00
2018-06-24T16:08:24.563Z,17.02
2018-06-24T16:09:24.481Z,16.95
2018-06-24T16:11:17.752Z,16.92
2018-06-24T16:12:17.744Z,16.87
2018-06-24T16:14:10.979Z,16.99
2018-06-24T16:15:10.893Z,16.99
2018-06-24T16:17:04.172Z,16.76
2018-06-24T16:18:04.111Z,16.70
2018-06-24T16:19:57.407Z,16.72
2018-06-24T16:20:57.441Z,16.80
2018-06-24T16:22:50.601Z,16.91
2018-06-24T16:23:50.546Z,16.90
2018-06-24T16:25:43.943Z,16.99
2018-06-24T16:26:43.753Z,16.99
2018-06-24T16:28:37.043Z,17.06
2018-06-24T16:29:36.956Z,17.09
2018-06-24T16:31:30.228Z,16.92
2018-06-24T16:32:30.167Z,16.94
2018-06-24T16:34:23.451Z,16.95
2018-06-24T16:35:23.371Z,16.92
2018-06-24T16:37:16.640Z,16.88
2018-06-24T16:38:16.580Z,16.84
2018-06-24T16:40:09.879Z,16.90
2018-06-24T16:41:09.792Z,16.81
2018-06-24T16:43:03.061Z,16.74
2018-06-24T16:44:02.990Z,16.72
2018-06-24T16:45:56.398Z,16.54
2018-06-24T16:46:56.289Z,16.58
2018-06-24T16:48:49.600Z,16.59
2018-06-24T16:49:49.560Z,16.65
2018-06-24T16:51:42.801Z,16.54
2018-06-24T16:52:42.716Z,16.48
2018-06-24T16:54:35.537Z,16.42
2018-06-24T16:55:35.456Z,16.39
2018-06-24T16:57:28.733Z,16.62
2018-06-24T16:58:28.669Z,16.63
2018-06-24T17:00:22.071Z,16.63
2018-06-24T17:01:21.884Z,16.66
2018-06-24T17:03:15.171Z,16.63
2018-06-24T17:04:15.097Z,16.49
2018-06-24T17:06:08.408Z,16.42
2018-06-24T17:07:08.326Z,16.49
2018-06-24T17:09:01.623Z,16.44
2018-06-24T17:10:01.543Z,16.39
2018-06-24T17:11:54.941Z,16.07
2018-06-24T17:12:54.754Z,16.10
2018-06-24T17:14:48.048Z,15.77
2018-06-24T17:15:47.967Z,15.81
2018-06-24T17:17:41.237Z,15.73
2018-06-24T17:18:41.171Z,15.81
2018-06-24T17:20:34.464Z,15.96
2018-06-24T17:21:34.383Z,15.88
2018-06-24T17:23:27.659Z,15.89
2018-06-24T17:24:27.595Z,15.75
2018-06-24T17:26:20.896Z,15.63
2018-06-24T17:27:20.814Z,15.52
2018-06-24T17:29:14.090Z,15.65
2018-06-24T17:30:14.027Z,15.60
2018-06-24T17:32:07.321Z,15.73
2018-06-24T17:33:07.240Z,15.73
2018-06-24T17:35:00.623Z,15.68
2018-06-24T17:36:00.452Z,15.47
2018-06-24T17:37:53.741Z,15.52
2018-06-24T17:38:53.658Z,15.59
2018-06-24T17:40:46.952Z,15.59
2018-06-24T17:41:46.868Z,15.59
2018-06-24T17:43:40.160Z,15.68
2018-06-24T17:44:40.095Z,15.71
2018-06-24T17:46:33.390Z,15.78
2018-06-24T17:47:33.354Z,15.93
2018-06-24T17:49:26.689Z,16.18
2018-06-24T17:50:26.517Z,16.21
2018-06-24T17:52:19.916Z,16.45
2018-06-24T17:53:19.818Z,16.33
2018-06-24T17:55:13.011Z,16.26
2018-06-24T17:56:12.947Z,16.39
2018-06-24T17:58:06.243Z,16.39
2018-06-24T17:59:06.163Z,16.36
2018-06-24T18:00:59.574Z,16.32
2018-06-24T18:01:59.391Z,16.33
2018-06-24T18:03:52.671Z,16.37
2018-06-24T18:04:52.604Z,16.32
2018-06-24T18:06:46.005Z,16.22
2018-06-24T18:07:45.816Z,16.27
2018-06-24T18:09:39.098Z,16.30
2018-06-24T18:10:39.037Z,16.39
2018-06-24T18:12:32.326Z,16.36
2018-06-24T18:13:32.249Z,16.29
2018-06-24T18:15:25.628Z,16.32
2018-06-24T18:16:25.460Z,16.32
2018-06-24T18:18:18.747Z,16.32
2018-06-24T18:19:18.665Z,16.40
2018-06-24T18:21:11.943Z,16.17
2018-06-24T18:22:11.878Z,16.21
2018-06-24T18:24:05.176Z,16.27
2018-06-24T18:25:05.094Z,16.29
2018-06-24T18:26:58.392Z,16.36
2018-06-24T18:27:58.384Z,16.33
2018-06-24T18:29:51.586Z,16.34
2018-06-24T18:30:51.530Z,16.34
2018-06-24T18:32:48.271Z,16.40
2018-06-24T18:33:44.738Z,16.40
2018-06-24T18:35:38.016Z,16.26